createdAt,value
2023-03-14T00:01:30.790Z,91.59
2023-03-14T00:04:01.481Z,91.61
2023-03-14T00:06:32.413Z,91.62
2023-03-14T00:09:02.871Z,91.73
2023-03-14T00:11:33.749Z,91.77
2023-03-14T00:14:04.251Z,91.67
2023-03-14T00:16:35.194Z,91.74
2023-03-14T00:19:05.974Z,91.80
2023-03-14T00:21:36.303Z,91.82
2023-03-14T00:24:07.897Z,91.98
2023-03-14T00:26:38.410Z,92.19
2023-03-14T00:29:09.382Z,92.30
2023-03-14T00:31:40.695Z,92.34
2023-03-14T00:34:11.303Z,92.34
2023-03-14T00:36:41.777Z,92.26
2023-03-14T00:39:12.542Z,92.38
2023-03-14T00:41:43.405Z,92.44
2023-03-14T00:44:14.193Z,92.44
2023-03-14T00:46:45.217Z,92.44
2023-03-14T00:49:15.701Z,92.50
2023-03-14T00:51:46.907Z,92.47
2023-03-14T00:54:17.450Z,92.39
2023-03-14T00:56:47.985Z,92.41
2023-03-14T00:59:18.710Z,92.53
2023-03-14T01:01:49.864Z,92.41
2023-03-14T01:04:20.593Z,92.35
2023-03-14T01:06:51.085Z,92.31
2023-03-14T01:09:22.038Z,92.29
2023-03-14T01:11:53.438Z,92.24
2023-03-14T01:14:24.505Z,92.26
2023-03-14T01:16:54.986Z,92.24
2023-03-14T01:19:25.494Z,92.24
2023-03-14T01:21:56.228Z,92.16
2023-03-14T01:24:26.705Z,92.06
2023-03-14T01:26:57.203Z,92.01
2023-03-14T01:29:28.265Z,92.08
2023-03-14T01:31:58.957Z,91.97
2023-03-14T01:34:29.767Z,92.02
2023-03-14T01:37:00.979Z,91.93
2023-03-14T01:39:31.969Z,92.10
2023-03-14T01:42:03.508Z,92.04
2023-03-14T01:44:52.038Z,92.01
2023-03-14T01:47:23.250Z,91.95
2023-03-14T01:49:58.144Z,92.04
2023-03-14T01:52:36.035Z,91.97
2023-03-14T01:55:07.581Z,91.95
2023-03-14T01:57:44.904Z,91.90
2023-03-14T02:00:19.860Z,91.73
2023-03-14T02:02:53.574Z,91.63
2023-03-14T02:05:27.782Z,91.51
2023-03-14T02:08:00.615Z,91.38
2023-03-14T02:10:34.331Z,91.33
2023-03-14T02:13:07.208Z,91.10
2023-03-14T02:15:39.174Z,90.98
2023-03-14T02:18:11.153Z,90.80
2023-03-14T02:20:46.988Z,90.58
2023-03-14T02:23:22.723Z,90.54
2023-03-14T02:25:59.926Z,90.33
2023-03-14T02:28:31.057Z,90.11
2023-03-14T02:31:02.093Z,89.97
2023-03-14T02:33:32.848Z,89.78
2023-03-14T02:36:07.160Z,89.48
2023-03-14T02:38:41.918Z,89.25
2023-03-14T02:41:12.600Z,89.06
2023-03-14T02:43:43.253Z,88.91
2023-03-14T02:46:16.509Z,88.64
2023-03-14T02:48:51.869Z,88.63
2023-03-14T02:51:23.427Z,88.41
2023-03-14T02:53:54.336Z,88.20
2023-03-14T02:56:24.719Z,88.13
2023-03-14T02:58:55.285Z,88.04
2023-03-14T03:01:25.818Z,87.97
2023-03-14T03:03:56.936Z,87.94
2023-03-14T03:06:27.737Z,87.86
2023-03-14T03:08:58.361Z,87.69
2023-03-14T03:11:28.764Z,87.79
2023-03-14T03:13:59.158Z,87.80
2023-03-14T03:16:30.049Z,87.75
2023-03-14T03:19:01.141Z,87.77
2023-03-14T03:21:31.462Z,87.65
2023-03-14T03:24:02.020Z,87.63
2023-03-14T03:26:32.545Z,87.55
2023-03-14T03:29:02.886Z,87.56
2023-03-14T03:31:33.265Z,87.52
2023-03-14T03:34:03.686Z,87.58
2023-03-14T03:36:34.279Z,87.50
2023-03-14T03:39:04.944Z,87.48
2023-03-14T03:41:35.487Z,87.51
2023-03-14T03:44:06.833Z,87.44
2023-03-14T03:46:37.224Z,87.51
2023-03-14T03:49:07.655Z,87.43
2023-03-14T03:51:38.513Z,87.33
2023-03-14T03:54:09.060Z,87.22
2023-03-14T03:56:39.721Z,87.12
2023-03-14T03:59:10.362Z,87.18
2023-03-14T04:01:40.961Z,87.11
2023-03-14T04:04:11.545Z,87.27
2023-03-14T04:06:42.979Z,87.23
2023-03-14T04:09:14.327Z,87.17
2023-03-14T04:11:45.371Z,87.12
2023-03-14T04:14:16.211Z,87.19
2023-03-14T04:16:46.966Z,87.16
2023-03-14T04:19:17.613Z,86.99
2023-03-14T04:21:48.661Z,87.03
2023-03-14T04:24:19.140Z,87.21
2023-03-14T04:26:49.615Z,87.09
2023-03-14T04:29:20.296Z,87.22
2023-03-14T04:31:51.091Z,87.23
2023-03-14T04:34:21.488Z,87.18
2023-03-14T04:36:52.193Z,87.13
2023-03-14T04:39:22.638Z,87.19
2023-03-14T04:41:53.334Z,87.52
2023-03-14T04:44:24.153Z,87.62
2023-03-14T04:46:54.748Z,87.87
2023-03-14T04:49:25.340Z,87.91
2023-03-14T04:51:56.137Z,87.78
2023-03-14T04:54:26.605Z,87.52
2023-03-14T04:56:56.993Z,87.45
2023-03-14T04:59:28.305Z,87.56
2023-03-14T05:01:58.884Z,87.51
2023-03-14T05:04:30.319Z,87.50
2023-03-14T05:07:00.836Z,87.69
2023-03-14T05:09:31.639Z,87.73
2023-03-14T05:12:02.515Z,87.93
2023-03-14T05:14:33.111Z,87.98
2023-03-14T05:17:03.665Z,88.07
2023-03-14T05:19:36.164Z,88.17
2023-03-14T05:22:07.284Z,88.27
2023-03-14T05:24:38.190Z,88.15
2023-03-14T05:27:09.148Z,88.21
2023-03-14T05:29:40.197Z,88.21
2023-03-14T05:32:10.585Z,88.06
2023-03-14T05:34:41.254Z,87.90
2023-03-14T05:37:12.138Z,87.79
2023-03-14T05:39:42.996Z,87.75
2023-03-14T05:42:13.501Z,87.79
2023-03-14T05:44:44.832Z,87.82
2023-03-14T05:47:16.130Z,87.83
2023-03-14T05:49:47.023Z,87.91
2023-03-14T05:52:17.893Z,87.85
2023-03-14T05:54:48.517Z,87.83
2023-03-14T05:57:18.949Z,87.75
2023-03-14T05:59:49.515Z,87.63
2023-03-14T06:02:20.232Z,87.59
2023-03-14T06:04:50.740Z,87.53
2023-03-14T06:07:21.212Z,87.49
2023-03-14T06:09:51.570Z,87.38
2023-03-14T06:12:22.071Z,87.54
2023-03-14T06:14:52.352Z,87.67
2023-03-14T06:17:22.794Z,87.83
2023-03-14T06:19:53.313Z,87.84
2023-03-14T06:22:23.929Z,87.88
2023-03-14T06:24:54.461Z,87.62
2023-03-14T06:27:25.174Z,87.76
2023-03-14T06:29:55.881Z,87.68
2023-03-14T06:32:26.649Z,87.50
2023-03-14T06:34:58.231Z,87.38
2023-03-14T06:37:28.724Z,87.34
2023-03-14T06:39:59.587Z,87.31
2023-03-14T06:42:30.318Z,86.94
2023-03-14T06:45:00.922Z,87.07
2023-03-14T06:47:31.315Z,87.25
2023-03-14T06:50:01.772Z,87.29
2023-03-14T06:52:32.597Z,86.93
2023-03-14T06:55:03.721Z,86.53
2023-03-14T06:57:34.067Z,86.41
2023-03-14T07:00:05.197Z,86.13
2023-03-14T07:02:42.727Z,85.98
2023-03-14T07:05:14.009Z,85.78
2023-03-14T07:07:44.936Z,85.54
2023-03-14T07:10:15.735Z,85.26
2023-03-14T07:12:46.269Z,84.55
2023-03-14T07:15:18.894Z,84.38
2023-03-14T07:17:50.118Z,84.10
2023-03-14T07:20:21.522Z,84.12
2023-03-14T07:22:53.079Z,83.98
2023-03-14T07:25:24.120Z,84.04
2023-03-14T07:27:54.465Z,84.13
2023-03-14T07:30:25.035Z,84.12
2023-03-14T07:32:55.596Z,83.99
2023-03-14T07:35:26.055Z,84.09
2023-03-14T07:37:57.342Z,84.11
2023-03-14T07:40:28.576Z,83.99
2023-03-14T07:42:59.230Z,83.85
2023-03-14T07:45:29.717Z,83.76
2023-03-14T07:48:00.718Z,83.79
2023-03-14T07:50:31.748Z,83.87
2023-03-14T07:53:02.024Z,83.77
2023-03-14T07:55:32.409Z,83.85
2023-03-14T07:58:02.970Z,83.98
2023-03-14T08:00:33.698Z,84.23
2023-03-14T08:03:04.290Z,84.20
2023-03-14T08:05:38.215Z,84.38
2023-03-14T08:08:09.069Z,84.45
2023-03-14T08:10:39.781Z,84.37
2023-03-14T08:13:11.134Z,84.29
2023-03-14T08:15:42.371Z,84.16
2023-03-14T08:18:13.059Z,84.11
2023-03-14T08:20:44.095Z,83.83
2023-03-14T08:23:14.473Z,83.80
2023-03-14T08:25:45.153Z,83.82
2023-03-14T08:28:15.786Z,83.70
2023-03-14T08:30:47.854Z,83.72
2023-03-14T08:33:18.433Z,83.49
2023-03-14T08:35:49.573Z,83.27
2023-03-14T08:38:20.220Z,82.98
2023-03-14T08:40:51.506Z,82.53
2023-03-14T08:43:21.959Z,82.65
2023-03-14T08:45:52.760Z,82.40
2023-03-14T08:48:23.444Z,82.39
2023-03-14T08:50:54.496Z,82.26
2023-03-14T08:53:24.929Z,82.39
2023-03-14T08:55:58.485Z,82.56
2023-03-14T08:58:30.440Z,82.67
2023-03-14T09:01:01.391Z,82.85
2023-03-14T09:03:32.166Z,82.86
2023-03-14T09:06:07.521Z,82.96
2023-03-14T09:08:39.698Z,83.47
2023-03-14T09:11:11.878Z,84.50
2023-03-14T09:13:42.646Z,85.21
2023-03-14T09:16:13.647Z,85.63
2023-03-14T09:18:44.643Z,85.97
2023-03-14T09:21:15.405Z,85.99
2023-03-14T09:23:46.835Z,86.08
2023-03-14T09:26:17.478Z,86.29
2023-03-14T09:28:48.117Z,86.19
2023-03-14T09:31:18.599Z,86.12
2023-03-14T09:33:49.810Z,85.99
2023-03-14T09:36:20.884Z,85.68
2023-03-14T09:38:51.469Z,85.73
2023-03-14T09:41:26.383Z,85.74
2023-03-14T09:44:02.820Z,85.94
2023-03-14T09:46:37.631Z,85.84
2023-03-14T09:49:14.463Z,84.87
2023-03-14T09:51:46.984Z,84.52
2023-03-14T09:54:32.011Z,84.22
2023-03-14T09:57:03.931Z,83.66
2023-03-14T09:59:36.276Z,83.19
2023-03-14T10:02:17.912Z,83.22
2023-03-14T10:04:51.565Z,82.65
2023-03-14T10:07:29.782Z,82.25
2023-03-14T10:10:00.990Z,81.92
2023-03-14T10:12:39.998Z,81.70
2023-03-14T10:15:14.842Z,80.98
2023-03-14T10:17:49.392Z,80.54
2023-03-14T10:20:35.415Z,80.16
2023-03-14T10:23:09.050Z,80.43
2023-03-14T10:25:41.902Z,80.21
2023-03-14T10:28:26.912Z,79.77
2023-03-14T10:30:58.769Z,79.85
2023-03-14T10:33:32.691Z,79.68
2023-03-14T10:36:05.753Z,80.26
2023-03-14T10:38:38.310Z,80.82
2023-03-14T10:41:21.255Z,81.03
2023-03-14T10:43:56.312Z,80.91
2023-03-14T10:46:29.102Z,81.23
2023-03-14T10:48:59.379Z,81.07
2023-03-14T10:51:31.241Z,81.08
2023-03-14T10:54:03.648Z,81.60
2023-03-14T10:56:40.648Z,81.77
2023-03-14T10:59:16.784Z,81.97
2023-03-14T11:01:57.076Z,81.80
2023-03-14T11:04:54.399Z,81.64
2023-03-14T11:07:31.568Z,81.82
2023-03-14T11:10:09.472Z,82.03
2023-03-14T11:12:49.128Z,82.10
2023-03-14T11:15:27.532Z,81.99
2023-03-14T11:18:18.540Z,81.11
2023-03-14T11:20:55.490Z,80.87
2023-03-14T11:23:30.144Z,80.45
2023-03-14T11:26:11.675Z,79.66
2023-03-14T11:28:44.974Z,79.47
2023-03-14T11:31:23.141Z,79.24
2023-03-14T11:33:58.603Z,79.00
2023-03-14T11:36:34.899Z,78.90
2023-03-14T11:39:09.986Z,78.81
2023-03-14T11:41:43.119Z,78.92
2023-03-14T11:44:21.875Z,79.85
2023-03-14T11:47:00.482Z,80.25
2023-03-14T11:49:39.690Z,80.23
2023-03-14T11:52:15.345Z,80.85
2023-03-14T11:54:50.758Z,81.32
2023-03-14T11:57:23.521Z,81.78
2023-03-14T12:00:00.087Z,82.04
2023-03-14T12:02:42.721Z,82.12
2023-03-14T12:05:40.621Z,82.08
2023-03-14T12:08:44.783Z,81.18
2023-03-14T12:11:28.839Z,76.75
2023-03-14T12:13:59.498Z,80.14
2023-03-14T12:16:40.778Z,83.05
2023-03-14T12:19:35.694Z,86.91
2023-03-14T12:22:24.634Z,89.40
2023-03-14T12:25:00.025Z,92.04
2023-03-14T12:27:50.574Z,94.21
2023-03-14T12:30:30.317Z,96.22
2023-03-14T12:33:29.324Z,97.50
2023-03-14T12:36:13.825Z,99.35
2023-03-14T12:39:32.472Z,100.00
2023-03-14T12:42:10.977Z,100.00
2023-03-14T12:45:15.327Z,100.00
2023-03-14T12:47:55.779Z,100.00
2023-03-14T12:50:33.794Z,100.00
2023-03-14T12:53:49.535Z,100.00
2023-03-14T12:56:47.585Z,100.00
2023-03-14T12:59:33.000Z,100.00
2023-03-14T13:02:22.227Z,100.00
2023-03-14T13:04:56.109Z,100.00
2023-03-14T13:07:58.103Z,100.00
2023-03-14T13:10:34.275Z,100.00
2023-03-14T13:13:19.327Z,100.00
2023-03-14T13:15:52.241Z,100.00
2023-03-14T13:18:29.318Z,100.00
2023-03-14T13:21:04.957Z,100.00
2023-03-14T13:23:38.456Z,100.00
2023-03-14T13:26:16.350Z,100.00
2023-03-14T13:28:46.778Z,100.00
2023-03-14T13:31:24.812Z,100.00
2023-03-14T13:34:03.319Z,100.00
2023-03-14T13:36:33.724Z,100.00
2023-03-14T13:39:05.733Z,100.00
2023-03-14T13:41:36.044Z,100.00
2023-03-14T13:44:15.125Z,100.00
2023-03-14T13:46:45.614Z,100.00
2023-03-14T13:49:23.751Z,100.00
2023-03-14T13:51:54.135Z,100.00
2023-03-14T13:54:27.304Z,100.00
2023-03-14T13:57:04.882Z,100.00
2023-03-14T13:59:37.044Z,100.00
2023-03-14T14:02:17.306Z,100.00
2023-03-14T14:04:50.187Z,100.00
2023-03-14T14:07:21.276Z,100.00
2023-03-14T14:09:55.448Z,100.00
2023-03-14T14:12:30.127Z,100.00
2023-03-14T14:15:04.467Z,100.00
2023-03-14T14:17:41.247Z,100.00
2023-03-14T14:20:22.538Z,100.00
2023-03-14T14:22:53.882Z,100.00
2023-03-14T14:25:24.633Z,100.00
2023-03-14T14:27:55.247Z,100.00
2023-03-14T14:30:36.285Z,100.00
2023-03-14T14:33:22.030Z,100.00
2023-03-14T14:35:59.508Z,100.00
2023-03-14T14:38:31.368Z,100.00
2023-03-14T14:41:05.308Z,100.00
2023-03-14T14:43:42.006Z,100.00
2023-03-14T14:46:18.516Z,100.00
2023-03-14T14:48:52.488Z,100.00
2023-03-14T14:51:35.725Z,99.96
2023-03-14T14:54:12.445Z,99.66
2023-03-14T14:56:47.857Z,99.74
2023-03-14T14:59:29.933Z,99.67
2023-03-14T15:02:02.439Z,99.42
2023-03-14T15:04:35.129Z,98.90
2023-03-14T15:07:05.870Z,99.00
2023-03-14T15:09:36.275Z,98.85
2023-03-14T15:12:07.634Z,98.38
2023-03-14T15:14:37.936Z,97.78
2023-03-14T15:17:12.209Z,96.88
2023-03-14T15:19:42.737Z,96.47
2023-03-14T15:22:15.608Z,96.39
2023-03-14T15:24:46.538Z,96.12
2023-03-14T15:27:19.853Z,94.69
2023-03-14T15:29:50.660Z,94.58
2023-03-14T15:32:21.048Z,94.31
2023-03-14T15:34:51.699Z,93.78
2023-03-14T15:37:22.341Z,93.12
2023-03-14T15:39:52.694Z,93.20
2023-03-14T15:42:23.307Z,92.90
2023-03-14T15:44:54.023Z,90.78
2023-03-14T15:47:24.270Z,87.24
2023-03-14T15:49:55.234Z,85.61
2023-03-14T15:52:25.544Z,85.98
2023-03-14T15:54:56.299Z,85.51
2023-03-14T15:57:26.886Z,85.35
2023-03-14T15:59:57.427Z,85.58
2023-03-14T16:02:28.349Z,85.80
2023-03-14T16:04:59.510Z,84.69
2023-03-14T16:07:31.865Z,82.67
2023-03-14T16:10:04.368Z,82.83
2023-03-14T16:12:34.975Z,81.93
2023-03-14T16:15:06.040Z,81.57
2023-03-14T16:17:38.186Z,81.63
2023-03-14T16:20:10.641Z,79.56
2023-03-14T16:22:41.710Z,79.16
2023-03-14T16:25:13.979Z,79.62
2023-03-14T16:27:44.708Z,79.46
2023-03-14T16:30:16.660Z,78.35
2023-03-14T16:32:49.263Z,79.29
2023-03-14T16:35:20.094Z,80.34
2023-03-14T16:37:50.491Z,80.53
2023-03-14T16:40:21.061Z,80.39
2023-03-14T16:45:42.018Z,80.77
2023-03-14T16:48:12.555Z,79.28
2023-03-14T16:50:44.196Z,79.17
2023-03-14T16:53:14.498Z,79.35
2023-03-14T16:55:45.419Z,79.58
2023-03-14T16:58:16.333Z,76.59
2023-03-14T17:00:49.005Z,76.05
2023-03-14T17:03:20.810Z,76.28
2023-03-14T17:05:53.038Z,74.33
2023-03-14T17:08:24.750Z,74.25
2023-03-14T17:10:55.464Z,74.30
2023-03-14T17:13:27.635Z,74.73
2023-03-14T17:15:59.969Z,74.32
2023-03-14T17:18:32.056Z,74.94
2023-03-14T17:21:03.248Z,73.70
2023-03-14T17:23:34.883Z,72.42
2023-03-14T17:26:05.706Z,72.53
2023-03-14T17:28:37.085Z,72.92
2023-03-14T17:31:09.762Z,72.97
2023-03-14T17:33:40.183Z,72.64
2023-03-14T17:36:13.271Z,72.76
2023-03-14T17:38:44.005Z,73.38
2023-03-14T17:41:16.228Z,73.73
2023-03-14T17:43:46.669Z,74.04
2023-03-14T17:46:17.766Z,74.16
2023-03-14T17:48:49.757Z,73.38
2023-03-14T17:51:20.341Z,73.46
2023-03-14T17:53:50.863Z,73.58
2023-03-14T17:56:21.437Z,72.94
2023-03-14T17:58:53.077Z,72.77
2023-03-14T18:01:23.728Z,73.28
2023-03-14T18:03:56.336Z,73.19
2023-03-14T18:06:30.112Z,72.75
2023-03-14T18:09:03.388Z,72.69
2023-03-14T18:11:34.157Z,73.17
2023-03-14T18:14:07.553Z,73.30
2023-03-14T18:16:38.120Z,72.73
2023-03-14T18:19:08.724Z,72.91
2023-03-14T18:21:40.367Z,72.59
2023-03-14T18:24:11.455Z,72.93
2023-03-14T18:26:41.735Z,72.62
2023-03-14T18:29:14.347Z,72.69
2023-03-14T18:31:45.616Z,72.50
2023-03-14T18:34:16.119Z,73.30
2023-03-14T18:36:46.717Z,73.35
2023-03-14T18:39:17.461Z,73.06
2023-03-14T18:41:48.135Z,72.88
2023-03-14T18:44:18.822Z,73.32
2023-03-14T18:46:49.570Z,72.82
2023-03-14T18:49:20.881Z,72.92
2023-03-14T18:51:52.777Z,73.41
2023-03-14T18:54:23.090Z,73.70
2023-03-14T18:56:53.842Z,73.27
2023-03-14T18:59:24.939Z,73.25
2023-03-14T19:01:55.709Z,73.82
2023-03-14T19:04:26.847Z,73.51
2023-03-14T19:06:57.490Z,74.08
2023-03-14T19:09:28.404Z,74.44
2023-03-14T19:11:59.439Z,74.69
2023-03-14T19:14:30.060Z,74.72
2023-03-14T19:17:00.684Z,74.63
2023-03-14T19:19:31.598Z,74.61
2023-03-14T19:22:02.154Z,74.87
2023-03-14T19:24:34.775Z,74.70
2023-03-14T19:27:05.269Z,74.41
2023-03-14T19:29:41.988Z,74.48
2023-03-14T19:32:13.428Z,74.49
2023-03-14T19:34:44.456Z,74.50
2023-03-14T19:37:15.080Z,74.51
2023-03-14T19:39:46.880Z,74.65
2023-03-14T19:42:17.284Z,74.33
2023-03-14T19:44:47.870Z,74.38
2023-03-14T19:47:18.437Z,74.24
2023-03-14T19:49:49.053Z,74.20
2023-03-14T19:52:19.563Z,74.60
2023-03-14T19:54:50.111Z,73.98
2023-03-14T19:57:21.058Z,74.69
2023-03-14T19:59:51.395Z,74.75
2023-03-14T20:02:21.765Z,74.84
2023-03-14T20:04:54.401Z,74.91
2023-03-14T20:07:26.966Z,75.02
2023-03-14T20:09:57.314Z,74.79
2023-03-14T20:12:31.291Z,75.19
2023-03-14T20:15:01.982Z,75.49
2023-03-14T20:17:32.378Z,75.61
2023-03-14T20:20:03.741Z,75.71
2023-03-14T20:22:38.097Z,75.65
2023-03-14T20:25:11.913Z,75.35
2023-03-14T20:27:42.907Z,75.53
2023-03-14T20:30:17.557Z,75.22
2023-03-14T20:32:48.684Z,75.02
2023-03-14T20:35:23.647Z,75.13
2023-03-14T20:37:56.158Z,75.61
2023-03-14T20:40:28.542Z,75.51
2023-03-14T20:42:59.027Z,75.75
2023-03-14T20:45:29.397Z,75.66
2023-03-14T20:48:00.047Z,75.59
2023-03-14T20:50:30.546Z,75.92
2023-03-14T20:53:02.176Z,75.98
2023-03-14T20:55:33.249Z,76.13
2023-03-14T20:58:03.556Z,76.32
2023-03-14T21:00:33.944Z,76.67
2023-03-14T21:03:04.741Z,76.69
2023-03-14T21:05:35.497Z,76.94
2023-03-14T21:08:06.398Z,77.01
2023-03-14T21:10:37.452Z,76.82
2023-03-14T21:13:07.900Z,77.02
2023-03-14T21:15:38.909Z,77.20
2023-03-14T21:18:10.385Z,77.27
2023-03-14T21:20:42.266Z,77.38
2023-03-14T21:23:13.162Z,77.11
2023-03-14T21:25:44.721Z,77.11
2023-03-14T21:28:15.155Z,77.33
2023-03-14T21:30:45.975Z,77.44
2023-03-14T21:33:16.485Z,77.82
2023-03-14T21:35:47.526Z,77.97
2023-03-14T21:38:18.331Z,77.84
2023-03-14T21:40:50.059Z,77.90
2023-03-14T21:43:21.674Z,77.52
2023-03-14T21:45:52.636Z,77.73
2023-03-14T21:48:23.578Z,77.41
2023-03-14T21:50:54.180Z,77.54
2023-03-14T21:53:29.866Z,77.53
2023-03-14T21:56:00.488Z,77.51
2023-03-14T21:58:30.890Z,77.71
2023-03-14T22:01:06.738Z,77.82
2023-03-14T22:03:37.562Z,77.52
2023-03-14T22:06:08.896Z,77.44
2023-03-14T22:08:39.281Z,77.74
2023-03-14T22:11:09.829Z,77.79
2023-03-14T22:13:41.020Z,77.67
2023-03-14T22:16:11.874Z,77.41
2023-03-14T22:18:42.179Z,77.29
2023-03-14T22:21:12.810Z,77.28
2023-03-14T22:23:43.156Z,77.29
2023-03-14T22:26:13.787Z,76.89
2023-03-14T22:28:44.103Z,76.84
2023-03-14T22:31:14.852Z,76.88
2023-03-14T22:33:45.925Z,76.87
2023-03-14T22:36:16.232Z,76.91
2023-03-14T22:38:46.940Z,76.71
2023-03-14T22:41:17.681Z,76.39
2023-03-14T22:43:49.960Z,76.78
2023-03-14T22:46:20.274Z,76.76
2023-03-14T22:48:51.309Z,76.63
2023-03-14T22:51:22.214Z,76.89
2023-03-14T22:53:52.822Z,76.78
2023-03-14T22:56:23.402Z,76.93
2023-03-14T22:58:54.039Z,76.88
2023-03-14T23:01:24.388Z,77.13
2023-03-14T23:03:54.913Z,77.02
2023-03-14T23:06:25.583Z,77.08
2023-03-14T23:08:56.513Z,76.82
2023-03-14T23:11:27.280Z,77.29
2023-03-14T23:13:58.124Z,77.45
2023-03-14T23:16:38.160Z,77.45
2023-03-14T23:19:11.109Z,77.47
2023-03-14T23:21:41.478Z,77.58
2023-03-14T23:24:12.264Z,77.16
2023-03-14T23:26:46.044Z,77.71
2023-03-14T23:29:16.368Z,77.83
2023-03-14T23:31:46.998Z,77.84
2023-03-14T23:34:17.632Z,77.84
2023-03-14T23:36:48.318Z,77.83
2023-03-14T23:39:18.855Z,77.75
2023-03-14T23:41:49.226Z,78.01
2023-03-14T23:44:20.184Z,78.18
2023-03-14T23:46:51.542Z,78.41
2023-03-14T23:49:21.853Z,78.22
2023-03-14T23:51:52.543Z,78.50
2023-03-14T23:54:23.422Z,78.29
2023-03-14T23:56:54.449Z,78.69
2023-03-14T23:59:25.482Z,78.67
